sensor_id;sensor_type;location;lat;lon;timestamp;P1;durP1;ratioP1;P2;durP2;ratioP2
79377;SDS011;68959;53.132;17.984;2023-06-14T00:01:10;7.30;;;4.30;;
79377;SDS011;68959;53.132;17.984;2023-06-14T00:03:43;11.90;;;5.20;;
79377;SDS011;68959;53.132;17.984;2023-06-14T00:06:10;13.50;;;5.30;;
79377;SDS011;68959;53.132;17.984;2023-06-14T00:08:37;10.60;;;5.50;;
79377;SDS011;68959;53.132;17.984;2023-06-14T00:11:04;12.40;;;5.60;;
79377;SDS011;68959;53.132;17.984;2023-06-14T00:13:31;13.50;;;5.90;;
79377;SDS011;68959;53.132;17.984;2023-06-14T00:15:59;11.20;;;5.30;;
79377;SDS011;68959;53.132;17.984;2023-06-14T00:18:25;15.30;;;6.60;;
79377;SDS011;68959;53.132;17.984;2023-06-14T00:20:55;10.20;;;5.20;;
79377;SDS011;68959;53.132;17.984;2023-06-14T00:23:22;10.40;;;5.80;;
79377;SDS011;68959;53.132;17.984;2023-06-14T00:25:48;9.40;;;5.00;;
79377;SDS011;68959;53.132;17.984;2023-06-14T00:28:15;10.30;;;4.00;;
79377;SDS011;68959;53.132;17.984;2023-06-14T00:30:43;6.40;;;4.30;;
79377;SDS011;68959;53.132;17.984;2023-06-14T00:33:12;6.30;;;3.30;;
79377;SDS011;68959;53.132;17.984;2023-06-14T00:35:39;7.50;;;3.80;;
79377;SDS011;68959;53.132;17.984;2023-06-14T00:38:06;7.60;;;4.30;;
79377;SDS011;68959;53.132;17.984;2023-06-14T00:40:33;8.70;;;4.30;;
79377;SDS011;68959;53.132;17.984;2023-06-14T00:43:01;6.70;;;4.30;;
79377;SDS011;68959;53.132;17.984;2023-06-14T00:45:27;9.60;;;4.30;;
79377;SDS011;68959;53.132;17.984;2023-06-14T00:47:54;6.40;;;4.30;;
79377;SDS011;68959;53.132;17.984;2023-06-14T00:50:22;7.80;;;4.20;;
79377;SDS011;68959;53.132;17.984;2023-06-14T00:52:49;8.00;;;4.20;;
79377;SDS011;68959;53.132;17.984;2023-06-14T00:55:18;7.00;;;4.30;;
79377;SDS011;68959;53.132;17.984;2023-06-14T00:57:44;6.20;;;4.60;;
79377;SDS011;68959;53.132;17.984;2023-06-14T01:00:14;11.00;;;4.70;;
79377;SDS011;68959;53.132;17.984;2023-06-14T01:02:41;7.20;;;4.20;;
79377;SDS011;68959;53.132;17.984;2023-06-14T01:05:09;7.60;;;4.80;;
79377;SDS011;68959;53.132;17.984;2023-06-14T01:10:46;8.10;;;4.50;;
79377;SDS011;68959;53.132;17.984;2023-06-14T01:16:03;7.70;;;4.90;;
79377;SDS011;68959;53.132;17.984;2023-06-14T01:18:31;9.40;;;4.90;;
79377;SDS011;68959;53.132;17.984;2023-06-14T01:20:58;11.30;;;5.20;;
79377;SDS011;68959;53.132;17.984;2023-06-14T01:23:25;16.80;;;5.40;;
79377;SDS011;68959;53.132;17.984;2023-06-14T01:25:59;15.20;;;6.30;;
79377;SDS011;68959;53.132;17.984;2023-06-14T01:28:31;10.60;;;6.00;;
79377;SDS011;68959;53.132;17.984;2023-06-14T01:31:00;12.50;;;7.20;;
79377;SDS011;68959;53.132;17.984;2023-06-14T01:33:33;13.80;;;8.20;;
79377;SDS011;68959;53.132;17.984;2023-06-14T01:36:02;19.80;;;9.10;;
79377;SDS011;68959;53.132;17.984;2023-06-14T01:38:33;20.10;;;10.80;;
79377;SDS011;68959;53.132;17.984;2023-06-14T01:40:59;20.80;;;12.60;;
79377;SDS011;68959;53.132;17.984;2023-06-14T01:43:29;25.50;;;14.40;;
79377;SDS011;68959;53.132;17.984;2023-06-14T01:45:57;26.10;;;15.30;;
79377;SDS011;68959;53.132;17.984;2023-06-14T01:48:27;26.90;;;13.60;;
79377;SDS011;68959;53.132;17.984;2023-06-14T01:50:54;15.60;;;10.30;;
79377;SDS011;68959;53.132;17.984;2023-06-14T01:53:21;22.30;;;11.10;;
79377;SDS011;68959;53.132;17.984;2023-06-14T01:55:47;15.10;;;9.20;;
79377;SDS011;68959;53.132;17.984;2023-06-14T01:58:15;14.80;;;8.20;;
79377;SDS011;68959;53.132;17.984;2023-06-14T02:00:43;14.50;;;8.40;;
79377;SDS011;68959;53.132;17.984;2023-06-14T02:03:10;17.60;;;10.60;;
79377;SDS011;68959;53.132;17.984;2023-06-14T02:05:38;13.50;;;9.10;;
79377;SDS011;68959;53.132;17.984;2023-06-14T02:08:06;14.90;;;8.80;;
79377;SDS011;68959;53.132;17.984;2023-06-14T02:10:33;16.20;;;9.70;;
79377;SDS011;68959;53.132;17.984;2023-06-14T02:13:00;13.10;;;8.10;;
79377;SDS011;68959;53.132;17.984;2023-06-14T02:15:27;16.90;;;6.80;;
79377;SDS011;68959;53.132;17.984;2023-06-14T02:18:01;11.10;;;6.70;;
79377;SDS011;68959;53.132;17.984;2023-06-14T02:20:28;13.00;;;7.40;;
79377;SDS011;68959;53.132;17.984;2023-06-14T02:22:57;13.60;;;8.10;;
79377;SDS011;68959;53.132;17.984;2023-06-14T02:25:23;15.40;;;7.40;;
79377;SDS011;68959;53.132;17.984;2023-06-14T02:27:50;11.00;;;6.70;;
79377;SDS011;68959;53.132;17.984;2023-06-14T02:30:17;15.90;;;6.70;;
79377;SDS011;68959;53.132;17.984;2023-06-14T02:32:43;11.50;;;6.30;;
79377;SDS011;68959;53.132;17.984;2023-06-14T02:35:13;14.90;;;6.80;;
79377;SDS011;68959;53.132;17.984;2023-06-14T02:37:39;10.00;;;5.90;;
79377;SDS011;68959;53.132;17.984;2023-06-14T02:40:07;10.80;;;6.30;;
79377;SDS011;68959;53.132;17.984;2023-06-14T02:42:35;14.60;;;6.80;;
79377;SDS011;68959;53.132;17.984;2023-06-14T02:45:04;9.00;;;5.50;;
79377;SDS011;68959;53.132;17.984;2023-06-14T02:47:31;9.40;;;6.00;;
79377;SDS011;68959;53.132;17.984;2023-06-14T02:49:58;10.20;;;6.10;;
79377;SDS011;68959;53.132;17.984;2023-06-14T02:52:26;11.10;;;6.10;;
79377;SDS011;68959;53.132;17.984;2023-06-14T02:54:52;10.20;;;5.50;;
79377;SDS011;68959;53.132;17.984;2023-06-14T02:57:21;12.80;;;5.80;;
79377;SDS011;68959;53.132;17.984;2023-06-14T02:59:49;10.40;;;5.00;;
79377;SDS011;68959;53.132;17.984;2023-06-14T03:02:16;11.60;;;5.90;;
79377;SDS011;68959;53.132;17.984;2023-06-14T03:04:43;13.90;;;5.80;;
79377;SDS011;68959;53.132;17.984;2023-06-14T03:09:46;14.20;;;6.10;;
79377;SDS011;68959;53.132;17.984;2023-06-14T03:12:13;10.80;;;6.40;;
79377;SDS011;68959;53.132;17.984;2023-06-14T03:14:41;10.70;;;5.20;;
79377;SDS011;68959;53.132;17.984;2023-06-14T03:17:09;14.60;;;7.00;;
79377;SDS011;68959;53.132;17.984;2023-06-14T03:19:38;10.10;;;5.70;;
79377;SDS011;68959;53.132;17.984;2023-06-14T03:22:07;13.10;;;7.50;;
79377;SDS011;68959;53.132;17.984;2023-06-14T03:24:34;11.70;;;6.70;;
79377;SDS011;68959;53.132;17.984;2023-06-14T03:27:05;15.90;;;7.10;;
79377;SDS011;68959;53.132;17.984;2023-06-14T03:29:31;14.80;;;7.70;;
79377;SDS011;68959;53.132;17.984;2023-06-14T03:34:25;15.80;;;6.80;;
79377;SDS011;68959;53.132;17.984;2023-06-14T03:36:52;13.60;;;8.00;;
79377;SDS011;68959;53.132;17.984;2023-06-14T03:39:19;15.60;;;7.00;;
79377;SDS011;68959;53.132;17.984;2023-06-14T03:41:46;12.20;;;6.70;;
79377;SDS011;68959;53.132;17.984;2023-06-14T03:44:17;15.70;;;6.40;;
79377;SDS011;68959;53.132;17.984;2023-06-14T03:46:45;10.80;;;6.10;;
79377;SDS011;68959;53.132;17.984;2023-06-14T03:49:13;12.30;;;5.90;;
79377;SDS011;68959;53.132;17.984;2023-06-14T03:51:40;16.60;;;6.50;;
79377;SDS011;68959;53.132;17.984;2023-06-14T03:54:07;12.60;;;6.60;;
79377;SDS011;68959;53.132;17.984;2023-06-14T03:56:35;14.60;;;6.50;;
79377;SDS011;68959;53.132;17.984;2023-06-14T03:59:03;16.50;;;7.10;;
79377;SDS011;68959;53.132;17.984;2023-06-14T04:01:30;17.80;;;6.90;;
79377;SDS011;68959;53.132;17.984;2023-06-14T04:03:58;10.30;;;6.30;;
79377;SDS011;68959;53.132;17.984;2023-06-14T04:06:26;14.70;;;6.80;;
79377;SDS011;68959;53.132;17.984;2023-06-14T04:08:59;11.80;;;6.30;;
79377;SDS011;68959;53.132;17.984;2023-06-14T04:11:30;14.10;;;6.80;;
79377;SDS011;68959;53.132;17.984;2023-06-14T04:13:58;8.10;;;5.40;;
79377;SDS011;68959;53.132;17.984;2023-06-14T04:16:27;10.80;;;5.80;;
79377;SDS011;68959;53.132;17.984;2023-06-14T04:18:54;15.10;;;7.00;;
79377;SDS011;68959;53.132;17.984;2023-06-14T04:21:22;15.10;;;6.20;;
79377;SDS011;68959;53.132;17.984;2023-06-14T04:23:51;9.90;;;6.40;;
79377;SDS011;68959;53.132;17.984;2023-06-14T04:26:21;12.70;;;6.90;;
79377;SDS011;68959;53.132;17.984;2023-06-14T04:31:18;12.70;;;6.70;;
79377;SDS011;68959;53.132;17.984;2023-06-14T04:33:45;11.80;;;6.40;;
79377;SDS011;68959;53.132;17.984;2023-06-14T04:36:17;9.10;;;5.90;;
79377;SDS011;68959;53.132;17.984;2023-06-14T04:38:46;11.90;;;6.40;;
79377;SDS011;68959;53.132;17.984;2023-06-14T04:41:13;10.70;;;6.10;;
79377;SDS011;68959;53.132;17.984;2023-06-14T04:43:42;13.80;;;5.70;;
79377;SDS011;68959;53.132;17.984;2023-06-14T04:46:10;17.40;;;5.90;;
79377;SDS011;68959;53.132;17.984;2023-06-14T04:51:07;18.80;;;7.60;;
79377;SDS011;68959;53.132;17.984;2023-06-14T04:53:35;9.10;;;5.20;;
79377;SDS011;68959;53.132;17.984;2023-06-14T04:56:02;18.20;;;6.40;;
79377;SDS011;68959;53.132;17.984;2023-06-14T04:58:30;10.50;;;6.80;;
79377;SDS011;68959;53.132;17.984;2023-06-14T05:00:59;18.50;;;7.10;;
79377;SDS011;68959;53.132;17.984;2023-06-14T05:03:26;15.00;;;7.20;;
79377;SDS011;68959;53.132;17.984;2023-06-14T05:05:54;11.80;;;7.30;;
79377;SDS011;68959;53.132;17.984;2023-06-14T05:08:21;16.40;;;7.40;;
79377;SDS011;68959;53.132;17.984;2023-06-14T05:10:53;13.20;;;7.10;;
79377;SDS011;68959;53.132;17.984;2023-06-14T05:13:19;13.40;;;7.30;;
79377;SDS011;68959;53.132;17.984;2023-06-14T05:15:48;12.30;;;6.40;;
79377;SDS011;68959;53.132;17.984;2023-06-14T05:18:15;13.20;;;5.70;;
79377;SDS011;68959;53.132;17.984;2023-06-14T05:20:41;17.30;;;6.50;;
79377;SDS011;68959;53.132;17.984;2023-06-14T05:23:08;7.70;;;5.20;;
79377;SDS011;68959;53.132;17.984;2023-06-14T05:25:44;17.40;;;6.00;;
79377;SDS011;68959;53.132;17.984;2023-06-14T05:28:12;11.50;;;6.20;;
79377;SDS011;68959;53.132;17.984;2023-06-14T05:30:38;10.20;;;5.60;;
79377;SDS011;68959;53.132;17.984;2023-06-14T05:33:06;10.90;;;5.50;;
79377;SDS011;68959;53.132;17.984;2023-06-14T05:35:33;12.00;;;6.10;;
79377;SDS011;68959;53.132;17.984;2023-06-14T05:38:00;16.80;;;6.90;;
79377;SDS011;68959;53.132;17.984;2023-06-14T05:40:27;13.90;;;6.00;;
79377;SDS011;68959;53.132;17.984;2023-06-14T05:42:54;14.90;;;7.30;;
79377;SDS011;68959;53.132;17.984;2023-06-14T05:45:21;10.80;;;6.10;;
79377;SDS011;68959;53.132;17.984;2023-06-14T05:47:47;9.70;;;6.20;;
79377;SDS011;68959;53.132;17.984;2023-06-14T05:50:14;16.50;;;6.30;;
79377;SDS011;68959;53.132;17.984;2023-06-14T05:52:41;11.90;;;6.60;;
79377;SDS011;68959;53.132;17.984;2023-06-14T05:55:08;15.90;;;6.30;;
79377;SDS011;68959;53.132;17.984;2023-06-14T05:57:38;11.60;;;6.20;;
79377;SDS011;68959;53.132;17.984;2023-06-14T06:00:05;13.40;;;6.10;;
79377;SDS011;68959;53.132;17.984;2023-06-14T06:02:38;14.00;;;6.30;;
79377;SDS011;68959;53.132;17.984;2023-06-14T06:05:05;14.80;;;6.00;;
79377;SDS011;68959;53.132;17.984;2023-06-14T06:07:32;10.50;;;5.90;;
79377;SDS011;68959;53.132;17.984;2023-06-14T06:09:59;11.40;;;5.60;;
79377;SDS011;68959;53.132;17.984;2023-06-14T06:12:26;11.40;;;5.70;;
79377;SDS011;68959;53.132;17.984;2023-06-14T06:14:52;18.40;;;5.80;;
79377;SDS011;68959;53.132;17.984;2023-06-14T06:17:19;14.30;;;5.60;;
79377;SDS011;68959;53.132;17.984;2023-06-14T06:19:45;11.90;;;5.30;;
79377;SDS011;68959;53.132;17.984;2023-06-14T06:22:12;11.20;;;5.60;;
79377;SDS011;68959;53.132;17.984;2023-06-14T06:24:39;12.80;;;4.80;;
79377;SDS011;68959;53.132;17.984;2023-06-14T06:27:05;11.40;;;5.10;;
79377;SDS011;68959;53.132;17.984;2023-06-14T06:29:34;12.40;;;5.70;;
79377;SDS011;68959;53.132;17.984;2023-06-14T06:32:01;9.90;;;4.70;;
79377;SDS011;68959;53.132;17.984;2023-06-14T06:34:28;8.70;;;5.10;;
79377;SDS011;68959;53.132;17.984;2023-06-14T06:36:55;9.60;;;4.20;;
79377;SDS011;68959;53.132;17.984;2023-06-14T06:39:21;14.70;;;5.00;;
79377;SDS011;68959;53.132;17.984;2023-06-14T06:41:48;11.10;;;5.00;;
79377;SDS011;68959;53.132;17.984;2023-06-14T06:44:15;12.20;;;5.30;;
79377;SDS011;68959;53.132;17.984;2023-06-14T06:46:43;8.00;;;4.70;;
79377;SDS011;68959;53.132;17.984;2023-06-14T06:49:10;8.80;;;4.30;;
79377;SDS011;68959;53.132;17.984;2023-06-14T06:51:40;10.90;;;4.80;;
79377;SDS011;68959;53.132;17.984;2023-06-14T06:54:08;8.20;;;4.20;;
79377;SDS011;68959;53.132;17.984;2023-06-14T06:56:35;8.00;;;4.30;;
79377;SDS011;68959;53.132;17.984;2023-06-14T06:59:02;12.30;;;4.70;;
79377;SDS011;68959;53.132;17.984;2023-06-14T07:01:29;10.90;;;4.40;;
79377;SDS011;68959;53.132;17.984;2023-06-14T07:03:56;14.20;;;5.00;;
79377;SDS011;68959;53.132;17.984;2023-06-14T07:06:23;12.80;;;4.80;;
79377;SDS011;68959;53.132;17.984;2023-06-14T07:08:53;9.40;;;4.20;;
79377;SDS011;68959;53.132;17.984;2023-06-14T07:11:20;14.80;;;5.00;;
79377;SDS011;68959;53.132;17.984;2023-06-14T07:13:47;10.30;;;4.90;;
79377;SDS011;68959;53.132;17.984;2023-06-14T07:16:13;12.80;;;5.40;;
79377;SDS011;68959;53.132;17.984;2023-06-14T07:18:40;14.90;;;5.40;;
79377;SDS011;68959;53.132;17.984;2023-06-14T07:21:07;20.90;;;5.50;;
79377;SDS011;68959;53.132;17.984;2023-06-14T07:23:33;11.60;;;5.20;;
79377;SDS011;68959;53.132;17.984;2023-06-14T07:26:00;10.70;;;5.50;;
79377;SDS011;68959;53.132;17.984;2023-06-14T07:28:26;16.00;;;5.30;;
79377;SDS011;68959;53.132;17.984;2023-06-14T07:30:53;12.00;;;4.90;;
79377;SDS011;68959;53.132;17.984;2023-06-14T07:33:20;12.60;;;5.00;;
79377;SDS011;68959;53.132;17.984;2023-06-14T07:35:46;12.40;;;5.30;;
79377;SDS011;68959;53.132;17.984;2023-06-14T07:38:14;14.00;;;4.40;;
79377;SDS011;68959;53.132;17.984;2023-06-14T07:40:41;12.20;;;5.70;;
79377;SDS011;68959;53.132;17.984;2023-06-14T07:43:07;15.60;;;5.80;;
79377;SDS011;68959;53.132;17.984;2023-06-14T07:45:34;12.60;;;5.30;;
79377;SDS011;68959;53.132;17.984;2023-06-14T07:48:00;12.60;;;5.00;;
79377;SDS011;68959;53.132;17.984;2023-06-14T07:50:27;13.10;;;6.50;;
79377;SDS011;68959;53.132;17.984;2023-06-14T07:52:53;12.00;;;6.00;;
79377;SDS011;68959;53.132;17.984;2023-06-14T07:55:22;11.50;;;6.00;;
79377;SDS011;68959;53.132;17.984;2023-06-14T07:57:48;14.40;;;5.70;;
79377;SDS011;68959;53.132;17.984;2023-06-14T08:00:16;14.40;;;5.00;;
79377;SDS011;68959;53.132;17.984;2023-06-14T08:02:44;17.00;;;4.80;;
79377;SDS011;68959;53.132;17.984;2023-06-14T08:05:12;11.00;;;4.70;;
79377;SDS011;68959;53.132;17.984;2023-06-14T08:07:39;15.50;;;5.00;;
79377;SDS011;68959;53.132;17.984;2023-06-14T08:10:06;17.30;;;5.30;;
79377;SDS011;68959;53.132;17.984;2023-06-14T08:12:33;9.20;;;5.10;;
79377;SDS011;68959;53.132;17.984;2023-06-14T08:15:01;15.70;;;5.10;;
79377;SDS011;68959;53.132;17.984;2023-06-14T08:17:28;8.30;;;5.00;;
79377;SDS011;68959;53.132;17.984;2023-06-14T08:19:54;15.20;;;4.80;;
79377;SDS011;68959;53.132;17.984;2023-06-14T08:22:23;11.60;;;4.80;;
79377;SDS011;68959;53.132;17.984;2023-06-14T08:24:54;12.90;;;5.00;;
79377;SDS011;68959;53.132;17.984;2023-06-14T08:27:20;10.90;;;5.00;;
79377;SDS011;68959;53.132;17.984;2023-06-14T08:29:48;11.60;;;5.40;;
79377;SDS011;68959;53.132;17.984;2023-06-14T08:32:15;11.60;;;4.80;;
79377;SDS011;68959;53.132;17.984;2023-06-14T08:34:41;10.80;;;4.70;;
79377;SDS011;68959;53.132;17.984;2023-06-14T08:37:08;10.00;;;4.90;;
79377;SDS011;68959;53.132;17.984;2023-06-14T08:39:34;9.90;;;4.50;;
79377;SDS011;68959;53.132;17.984;2023-06-14T08:42:02;12.80;;;5.20;;
79377;SDS011;68959;53.132;17.984;2023-06-14T08:44:30;16.40;;;5.20;;
79377;SDS011;68959;53.132;17.984;2023-06-14T08:46:56;12.60;;;4.70;;
79377;SDS011;68959;53.132;17.984;2023-06-14T08:49:25;8.60;;;4.40;;
79377;SDS011;68959;53.132;17.984;2023-06-14T08:51:59;8.70;;;4.30;;
79377;SDS011;68959;53.132;17.984;2023-06-14T08:54:28;8.70;;;4.50;;
79377;SDS011;68959;53.132;17.984;2023-06-14T08:56:56;9.40;;;4.30;;
79377;SDS011;68959;53.132;17.984;2023-06-14T08:59:24;10.90;;;4.80;;
79377;SDS011;68959;53.132;17.984;2023-06-14T09:01:53;16.60;;;5.50;;
79377;SDS011;68959;53.132;17.984;2023-06-14T09:04:21;13.00;;;5.20;;
79377;SDS011;68959;53.132;17.984;2023-06-14T09:06:48;14.10;;;5.30;;
79377;SDS011;68959;53.132;17.984;2023-06-14T09:09:20;13.20;;;5.10;;
79377;SDS011;68959;53.132;17.984;2023-06-14T09:11:47;9.40;;;5.20;;
79377;SDS011;68959;53.132;17.984;2023-06-14T09:14:14;11.40;;;5.10;;
79377;SDS011;68959;53.132;17.984;2023-06-14T09:16:40;10.10;;;5.40;;
79377;SDS011;68959;53.132;17.984;2023-06-14T09:19:07;16.40;;;5.40;;
79377;SDS011;68959;53.132;17.984;2023-06-14T09:21:35;10.50;;;4.60;;
79377;SDS011;68959;53.132;17.984;2023-06-14T09:24:02;10.10;;;5.00;;
79377;SDS011;68959;53.132;17.984;2023-06-14T09:26:31;11.40;;;5.60;;
79377;SDS011;68959;53.132;17.984;2023-06-14T09:28:57;14.00;;;4.80;;
79377;SDS011;68959;53.132;17.984;2023-06-14T09:31:24;11.90;;;5.20;;
79377;SDS011;68959;53.132;17.984;2023-06-14T09:33:51;13.60;;;5.90;;
79377;SDS011;68959;53.132;17.984;2023-06-14T09:36:21;13.20;;;4.80;;
79377;SDS011;68959;53.132;17.984;2023-06-14T09:38:56;17.40;;;5.30;;
79377;SDS011;68959;53.132;17.984;2023-06-14T09:41:31;15.40;;;6.00;;
79377;SDS011;68959;53.132;17.984;2023-06-14T09:44:06;13.10;;;5.30;;
79377;SDS011;68959;53.132;17.984;2023-06-14T09:46:35;12.40;;;5.70;;
79377;SDS011;68959;53.132;17.984;2023-06-14T09:49:02;15.20;;;5.30;;
79377;SDS011;68959;53.132;17.984;2023-06-14T09:51:31;12.30;;;5.10;;
79377;SDS011;68959;53.132;17.984;2023-06-14T09:53:59;11.40;;;6.60;;
79377;SDS011;68959;53.132;17.984;2023-06-14T09:56:32;15.40;;;5.80;;
79377;SDS011;68959;53.132;17.984;2023-06-14T09:59:02;12.90;;;5.30;;
79377;SDS011;68959;53.132;17.984;2023-06-14T10:01:31;13.10;;;5.70;;
79377;SDS011;68959;53.132;17.984;2023-06-14T10:04:04;11.90;;;4.60;;
79377;SDS011;68959;53.132;17.984;2023-06-14T10:06:32;11.70;;;5.10;;
79377;SDS011;68959;53.132;17.984;2023-06-14T10:09:03;10.40;;;5.90;;
79377;SDS011;68959;53.132;17.984;2023-06-14T10:11:31;15.30;;;5.80;;
79377;SDS011;68959;53.132;17.984;2023-06-14T10:13:58;12.90;;;5.30;;
79377;SDS011;68959;53.132;17.984;2023-06-14T10:19:18;9.50;;;5.20;;
79377;SDS011;68959;53.132;17.984;2023-06-14T10:22:01;13.30;;;5.50;;
79377;SDS011;68959;53.132;17.984;2023-06-14T10:24:49;13.10;;;5.70;;
79377;SDS011;68959;53.132;17.984;2023-06-14T10:27:16;15.20;;;6.60;;
79377;SDS011;68959;53.132;17.984;2023-06-14T10:32:20;9.00;;;5.40;;
79377;SDS011;68959;53.132;17.984;2023-06-14T10:34:53;10.10;;;5.70;;
79377;SDS011;68959;53.132;17.984;2023-06-14T10:37:22;15.70;;;6.30;;
79377;SDS011;68959;53.132;17.984;2023-06-14T10:39:50;12.20;;;5.60;;
79377;SDS011;68959;53.132;17.984;2023-06-14T10:42:19;13.50;;;5.50;;
79377;SDS011;68959;53.132;17.984;2023-06-14T10:44:52;9.90;;;5.40;;
79377;SDS011;68959;53.132;17.984;2023-06-14T10:49:54;14.40;;;5.40;;
79377;SDS011;68959;53.132;17.984;2023-06-14T10:52:33;12.50;;;4.90;;
79377;SDS011;68959;53.132;17.984;2023-06-14T10:55:13;11.70;;;4.60;;
79377;SDS011;68959;53.132;17.984;2023-06-14T10:57:43;15.10;;;5.60;;
79377;SDS011;68959;53.132;17.984;2023-06-14T11:00:18;12.00;;;5.10;;
79377;SDS011;68959;53.132;17.984;2023-06-14T11:05:54;17.30;;;4.90;;
79377;SDS011;68959;53.132;17.984;2023-06-14T11:11:21;8.40;;;4.80;;
79377;SDS011;68959;53.132;17.984;2023-06-14T11:13:50;12.70;;;4.60;;
79377;SDS011;68959;53.132;17.984;2023-06-14T11:16:17;8.70;;;5.20;;
79377;SDS011;68959;53.132;17.984;2023-06-14T11:18:45;9.50;;;5.10;;
79377;SDS011;68959;53.132;17.984;2023-06-14T11:21:16;10.30;;;3.60;;
79377;SDS011;68959;53.132;17.984;2023-06-14T11:23:50;8.20;;;4.30;;
79377;SDS011;68959;53.132;17.984;2023-06-14T11:26:25;9.40;;;4.00;;
79377;SDS011;68959;53.132;17.984;2023-06-14T11:28:56;8.40;;;4.40;;
79377;SDS011;68959;53.132;17.984;2023-06-14T11:31:24;10.90;;;4.60;;
79377;SDS011;68959;53.132;17.984;2023-06-14T11:33:55;8.60;;;4.20;;
79377;SDS011;68959;53.132;17.984;2023-06-14T11:36:28;9.60;;;4.50;;
79377;SDS011;68959;53.132;17.984;2023-06-14T11:39:04;13.70;;;5.40;;
79377;SDS011;68959;53.132;17.984;2023-06-14T11:41:34;11.20;;;4.80;;
79377;SDS011;68959;53.132;17.984;2023-06-14T11:44:10;12.90;;;4.90;;
79377;SDS011;68959;53.132;17.984;2023-06-14T11:46:38;11.10;;;5.00;;
79377;SDS011;68959;53.132;17.984;2023-06-14T11:49:04;10.10;;;4.60;;
79377;SDS011;68959;53.132;17.984;2023-06-14T11:51:33;19.90;;;5.40;;
79377;SDS011;68959;53.132;17.984;2023-06-14T11:54:01;14.70;;;5.20;;
79377;SDS011;68959;53.132;17.984;2023-06-14T11:56:29;11.30;;;5.00;;
79377;SDS011;68959;53.132;17.984;2023-06-14T11:58:59;12.30;;;5.10;;
79377;SDS011;68959;53.132;17.984;2023-06-14T12:01:29;13.50;;;4.70;;
79377;SDS011;68959;53.132;17.984;2023-06-14T12:03:58;10.80;;;5.10;;
79377;SDS011;68959;53.132;17.984;2023-06-14T12:06:26;14.20;;;5.90;;
79377;SDS011;68959;53.132;17.984;2023-06-14T12:09:06;11.40;;;5.70;;
79377;SDS011;68959;53.132;17.984;2023-06-14T12:11:37;17.00;;;5.90;;
79377;SDS011;68959;53.132;17.984;2023-06-14T12:14:04;9.00;;;4.50;;
79377;SDS011;68959;53.132;17.984;2023-06-14T12:16:32;10.50;;;5.30;;
79377;SDS011;68959;53.132;17.984;2023-06-14T12:19:19;7.80;;;4.80;;
79377;SDS011;68959;53.132;17.984;2023-06-14T12:21:52;13.30;;;4.80;;
79377;SDS011;68959;53.132;17.984;2023-06-14T12:24:19;13.60;;;5.70;;
79377;SDS011;68959;53.132;17.984;2023-06-14T12:26:45;11.00;;;4.50;;
79377;SDS011;68959;53.132;17.984;2023-06-14T12:29:13;10.40;;;4.70;;
79377;SDS011;68959;53.132;17.984;2023-06-14T12:31:39;11.30;;;4.50;;
79377;SDS011;68959;53.132;17.984;2023-06-14T12:34:07;12.80;;;4.20;;
79377;SDS011;68959;53.132;17.984;2023-06-14T12:36:34;10.40;;;3.70;;
79377;SDS011;68959;53.132;17.984;2023-06-14T12:39:06;15.80;;;4.70;;
79377;SDS011;68959;53.132;17.984;2023-06-14T12:41:32;10.60;;;4.30;;
79377;SDS011;68959;53.132;17.984;2023-06-14T12:43:59;12.40;;;3.80;;
79377;SDS011;68959;53.132;17.984;2023-06-14T12:46:30;13.70;;;4.20;;
79377;SDS011;68959;53.132;17.984;2023-06-14T12:48:58;10.70;;;3.40;;
79377;SDS011;68959;53.132;17.984;2023-06-14T12:51:25;7.20;;;4.10;;
79377;SDS011;68959;53.132;17.984;2023-06-14T12:53:52;8.30;;;4.40;;
79377;SDS011;68959;53.132;17.984;2023-06-14T12:56:18;10.30;;;4.30;;
79377;SDS011;68959;53.132;17.984;2023-06-14T12:58:46;9.00;;;4.10;;
79377;SDS011;68959;53.132;17.984;2023-06-14T13:01:12;10.10;;;4.30;;
79377;SDS011;68959;53.132;17.984;2023-06-14T13:03:39;8.30;;;4.00;;
79377;SDS011;68959;53.132;17.984;2023-06-14T13:06:07;6.50;;;3.80;;
79377;SDS011;68959;53.132;17.984;2023-06-14T13:08:33;5.50;;;3.00;;
79377;SDS011;68959;53.132;17.984;2023-06-14T13:11:00;15.10;;;5.30;;
79377;SDS011;68959;53.132;17.984;2023-06-14T13:13:26;7.30;;;4.00;;
79377;SDS011;68959;53.132;17.984;2023-06-14T13:15:53;7.90;;;5.20;;
79377;SDS011;68959;53.132;17.984;2023-06-14T13:18:20;10.30;;;4.60;;
79377;SDS011;68959;53.132;17.984;2023-06-14T13:20:46;15.50;;;5.90;;
79377;SDS011;68959;53.132;17.984;2023-06-14T13:23:15;8.50;;;4.50;;
79377;SDS011;68959;53.132;17.984;2023-06-14T13:25:42;10.80;;;5.00;;
79377;SDS011;68959;53.132;17.984;2023-06-14T13:28:09;9.50;;;4.90;;
79377;SDS011;68959;53.132;17.984;2023-06-14T13:30:36;11.40;;;5.20;;
79377;SDS011;68959;53.132;17.984;2023-06-14T13:33:03;13.20;;;5.50;;
79377;SDS011;68959;53.132;17.984;2023-06-14T13:35:29;10.70;;;5.50;;
79377;SDS011;68959;53.132;17.984;2023-06-14T13:37:56;11.80;;;5.70;;
79377;SDS011;68959;53.132;17.984;2023-06-14T13:40:23;10.20;;;5.10;;
79377;SDS011;68959;53.132;17.984;2023-06-14T13:42:50;12.00;;;5.50;;
79377;SDS011;68959;53.132;17.984;2023-06-14T13:45:16;9.30;;;5.00;;
79377;SDS011;68959;53.132;17.984;2023-06-14T13:47:43;10.90;;;5.50;;
79377;SDS011;68959;53.132;17.984;2023-06-14T13:50:11;16.30;;;5.70;;
79377;SDS011;68959;53.132;17.984;2023-06-14T13:52:37;17.70;;;6.30;;
79377;SDS011;68959;53.132;17.984;2023-06-14T13:55:04;7.10;;;4.20;;
79377;SDS011;68959;53.132;17.984;2023-06-14T13:57:31;8.30;;;4.30;;
79377;SDS011;68959;53.132;17.984;2023-06-14T13:59:59;7.70;;;4.20;;
79377;SDS011;68959;53.132;17.984;2023-06-14T14:02:27;8.60;;;4.80;;
79377;SDS011;68959;53.132;17.984;2023-06-14T14:04:55;13.00;;;4.70;;
79377;SDS011;68959;53.132;17.984;2023-06-14T14:07:23;13.00;;;4.90;;
79377;SDS011;68959;53.132;17.984;2023-06-14T14:09:50;6.40;;;4.30;;
79377;SDS011;68959;53.132;17.984;2023-06-14T14:12:17;9.90;;;4.50;;
79377;SDS011;68959;53.132;17.984;2023-06-14T14:14:44;10.30;;;4.30;;
79377;SDS011;68959;53.132;17.984;2023-06-14T14:17:11;11.50;;;4.90;;
79377;SDS011;68959;53.132;17.984;2023-06-14T14:19:38;7.50;;;4.30;;
79377;SDS011;68959;53.132;17.984;2023-06-14T14:22:05;11.70;;;5.10;;
79377;SDS011;68959;53.132;17.984;2023-06-14T14:24:32;8.90;;;5.00;;
79377;SDS011;68959;53.132;17.984;2023-06-14T14:26:58;9.70;;;5.20;;
79377;SDS011;68959;53.132;17.984;2023-06-14T14:29:27;10.10;;;4.40;;
79377;SDS011;68959;53.132;17.984;2023-06-14T14:31:55;9.80;;;4.70;;
79377;SDS011;68959;53.132;17.984;2023-06-14T14:34:24;11.50;;;4.90;;
79377;SDS011;68959;53.132;17.984;2023-06-14T14:36:51;12.70;;;5.70;;
79377;SDS011;68959;53.132;17.984;2023-06-14T14:39:18;9.40;;;5.20;;
79377;SDS011;68959;53.132;17.984;2023-06-14T14:41:44;10.70;;;5.20;;
79377;SDS011;68959;53.132;17.984;2023-06-14T14:44:11;11.10;;;5.00;;
79377;SDS011;68959;53.132;17.984;2023-06-14T14:46:37;6.90;;;4.00;;
79377;SDS011;68959;53.132;17.984;2023-06-14T14:49:05;10.50;;;4.00;;
79377;SDS011;68959;53.132;17.984;2023-06-14T14:51:31;11.60;;;5.20;;
79377;SDS011;68959;53.132;17.984;2023-06-14T14:53:58;12.90;;;3.90;;
79377;SDS011;68959;53.132;17.984;2023-06-14T14:56:24;14.40;;;6.70;;
79377;SDS011;68959;53.132;17.984;2023-06-14T14:58:52;6.00;;;3.50;;